Time;durP1;ratioP1;P1;durP2;ratioP2;P2;SDS_P1;SDS_P2;PMS_P1;PMS_P2;Temp;Humidity;BMP_temperature;BMP_pressure;BME280_temperature;BME280_humidity;BME280_pressure;Samples;Min_cycle;Max_cycle;Signal;HPM_P1;HPM_P2
2022/10/29 00:00:39;;;;;;;25.80;8.45;;;;;;;13.86;100.00;102073.00;5076480;28;20044;-69
2022/10/29 00:03:08;;;;;;;20.90;7.88;;;;;;;13.77;100.00;102069.00;5064128;28;20061;-68
2022/10/29 00:05:33;;;;;;;28.70;7.93;;;;;;;13.70;100.00;102060.47;5061818;28;20037;-69
2022/10/29 00:08:00;;;;;;;22.58;8.15;;;;;;;13.79;100.00;102059.06;5065697;28;20049;-69
2022/10/29 00:10:25;;;;;;;38.33;8.77;;;;;;;13.71;100.00;102059.50;5070646;28;20056;-68
2022/10/29 00:12:51;;;;;;;39.10;9.27;;;;;;;13.70;100.00;102055.09;5068930;28;20113;-67
2022/10/29 00:15:17;;;;;;;29.75;9.10;;;;;;;13.56;100.00;102057.69;5065728;28;20055;-69
2022/10/29 00:17:42;;;;;;;13.55;6.65;;;;;;;13.48;100.00;102058.09;5073446;28;20047;-69
2022/10/29 00:20:08;;;;;;;16.23;7.88;;;;;;;13.41;100.00;102055.88;5068045;28;20039;-69
2022/10/29 00:22:34;;;;;;;18.85;7.72;;;;;;;13.38;100.00;102058.72;5060172;28;20069;-68
2022/10/29 00:24:59;;;;;;;23.17;9.60;;;;;;;13.35;100.00;102050.84;5065865;28;20078;-69
2022/10/29 00:27:25;;;;;;;27.80;8.57;;;;;;;13.36;100.00;102056.13;5063333;28;20499;-69
2022/10/29 00:29:50;;;;;;;18.83;8.77;;;;;;;13.39;100.00;102057.75;5063962;28;20504;-69
2022/10/29 00:32:16;;;;;;;21.70;10.30;;;;;;;13.35;100.00;102040.97;5070844;28;20395;-69
2022/10/29 00:34:41;;;;;;;37.08;13.07;;;;;;;13.39;100.00;102047.03;5066812;28;20033;-67
2022/10/29 00:37:07;;;;;;;28.83;10.25;;;;;;;13.38;100.00;102048.84;5062410;28;20075;-68
2022/10/29 00:39:33;;;;;;;35.45;10.10;;;;;;;13.49;100.00;102056.28;5066241;28;20556;-68
2022/10/29 00:41:59;;;;;;;32.15;10.48;;;;;;;13.48;100.00;102052.75;5065642;28;20032;-69
2022/10/29 00:44:29;;;;;;;30.73;11.43;;;;;;;13.42;100.00;102046.88;5067704;28;20054;-68
2022/10/29 00:47:12;;;;;;;24.98;8.60;;;;;;;13.43;100.00;102049.47;5069473;28;20068;-67
2022/10/29 00:49:40;;;;;;;23.90;9.88;;;;;;;13.09;100.00;102050.44;5065248;28;20040;-68
2022/10/29 00:52:07;;;;;;;13.63;7.30;;;;;;;12.95;100.00;102052.97;5067955;28;20425;-70
2022/10/29 00:54:38;;;;;;;22.42;7.68;;;;;;;12.85;100.00;102058.00;5063835;28;20072;-67
2022/10/29 00:57:10;;;;;;;31.52;9.05;;;;;;;13.02;100.00;102050.84;5067624;28;20154;-68
2022/10/29 00:59:35;;;;;;;24.85;8.80;;;;;;;13.00;100.00;102053.59;5070908;28;20534;-69
2022/10/29 01:02:01;;;;;;;23.00;9.15;;;;;;;12.86;100.00;102056.19;5069965;28;20033;-69
2022/10/29 01:04:29;;;;;;;23.63;9.15;;;;;;;12.87;100.00;102055.22;5071654;28;20874;-68
2022/10/29 01:06:55;;;;;;;34.22;10.98;;;;;;;12.86;100.00;102057.03;5065316;28;20127;-68
2022/10/29 01:09:20;;;;;;;28.42;11.25;;;;;;;12.86;100.00;102059.72;5066380;28;20119;-69
2022/10/29 01:12:20;;;;;;;25.42;10.40;;;;;;;12.88;100.00;102051.59;5062695;28;21039;-69
2022/10/29 01:15:13;;;;;;;27.70;10.15;;;;;;;12.51;100.00;102042.84;5064099;28;20033;-69
2022/10/29 01:18:23;;;;;;;51.60;14.32;;;;;;;12.28;100.00;102044.03;5073139;28;20068;-68
2022/10/29 01:21:01;;;;;;;98.75;9.27;;;;;;;12.37;100.00;102040.88;5043411;28;20045;-68
2022/10/29 01:23:50;;;;;;;45.03;20.50;;;;;;;12.32;100.00;102037.56;5044089;28;20084;-69
2022/10/29 01:26:44;;;;;;;44.03;20.38;;;;;;;12.35;100.00;102037.44;5040290;28;20099;-69
2022/10/29 01:29:12;;;;;;;52.88;17.42;;;;;;;12.32;100.00;102036.72;5041934;28;20111;-68
2022/10/29 01:31:41;;;;;;;30.00;11.93;;;;;;;12.35;100.00;102032.09;5043033;28;20041;-68
2022/10/29 01:34:23;;;;;;;25.00;10.90;;;;;;;12.44;100.00;102036.94;5043367;28;20094;-68
2022/10/29 01:37:00;;;;;;;26.00;10.77;;;;;;;12.46;100.00;102028.84;5044578;28;20059;-67
2022/10/29 01:39:52;;;;;;;24.90;9.40;;;;;;;12.37;100.00;102029.31;5044164;28;20045;-69
2022/10/29 01:42:38;;;;;;;21.20;8.30;;;;;;;12.38;100.00;102028.38;5034894;28;20095;-68
2022/10/29 01:45:18;;;;;;;18.25;7.80;;;;;;;12.32;100.00;102031.38;5036747;28;20056;-69
2022/10/29 01:47:49;;;;;;;13.30;7.10;;;;;;;12.26;100.00;102026.34;5042442;28;20840;-68
2022/10/29 01:50:20;;;;;;;27.30;9.38;;;;;;;12.26;100.00;102024.53;5040042;28;20053;-68
2022/10/29 01:52:47;;;;;;;33.30;9.95;;;;;;;12.33;100.00;102028.59;5058955;28;20036;-68
2022/10/29 01:55:33;;;;;;;17.42;9.32;;;;;;;12.27;100.00;102018.22;5057874;28;20131;-68
2022/10/29 01:58:03;;;;;;;24.85;9.05;;;;;;;12.24;100.00;102013.03;5058342;28;20037;-68
2022/10/29 02:00:52;;;;;;;25.35;9.85;;;;;;;12.28;100.00;102005.72;5056522;28;20085;-68
2022/10/29 02:03:32;;;;;;;21.05;10.25;;;;;;;12.30;100.00;102015.41;5059667;28;20052;-69
2022/10/29 02:06:06;;;;;;;31.45;11.20;;;;;;;12.25;100.00;102001.41;5076455;28;20049;-68
2022/10/29 02:08:48;;;;;;;22.88;9.85;;;;;;;12.21;100.00;102005.19;5057399;28;20063;-69
2022/10/29 02:11:29;;;;;;;22.63;11.32;;;;;;;12.21;100.00;101994.47;5059891;28;20044;-69
2022/10/29 02:14:01;;;;;;;20.52;9.90;;;;;;;12.22;100.00;101985.50;5060404;28;20452;-69
2022/10/29 02:16:28;;;;;;;27.87;9.97;;;;;;;12.16;100.00;101978.69;5060360;28;20071;-69
2022/10/29 02:18:53;;;;;;;17.52;9.27;;;;;;;12.14;100.00;101969.84;5058112;28;20489;-68
2022/10/29 02:21:19;;;;;;;15.23;8.52;;;;;;;12.13;100.00;101970.78;5059249;28;20048;-69
2022/10/29 02:23:45;;;;;;;20.33;8.65;;;;;;;12.08;100.00;101970.16;5059789;28;20071;-71
2022/10/29 02:26:14;;;;;;;18.17;9.60;;;;;;;12.07;100.00;101967.59;5060118;28;20063;-69
2022/10/29 02:28:40;;;;;;;16.38;8.82;;;;;;;12.11;100.00;101966.50;5060300;28;20440;-68
2022/10/29 02:31:06;;;;;;;21.55;9.02;;;;;;;12.15;100.00;101984.09;5058923;28;20033;-69
2022/10/29 02:33:32;;;;;;;23.73;9.80;;;;;;;11.99;100.00;101984.00;5059582;28;20581;-69
2022/10/29 02:35:57;;;;;;;31.60;10.65;;;;;;;12.06;100.00;101974.75;5058606;28;20028;-69
2022/10/29 02:38:23;;;;;;;29.98;11.23;;;;;;;12.04;100.00;101970.41;5060309;28;20048;-68
2022/10/29 02:40:48;;;;;;;258.40;29.40;;;;;;;11.87;100.00;101968.59;5053226;28;20043;-69
2022/10/29 02:43:14;;;;;;;32.28;12.80;;;;;;;11.76;100.00;101968.25;5055552;28;20048;-68
2022/10/29 02:45:39;;;;;;;22.98;12.35;;;;;;;11.76;100.00;101965.59;5057346;28;20101;-69
2022/10/29 02:48:05;;;;;;;23.63;11.10;;;;;;;11.83;100.00;101970.56;5060035;28;20047;-68
2022/10/29 02:50:30;;;;;;;27.70;13.38;;;;;;;11.69;100.00;101973.03;5060166;28;20043;-69
2022/10/29 02:52:56;;;;;;;33.00;12.73;;;;;;;11.79;100.00;101978.78;5059888;28;20812;-69
2022/10/29 02:55:21;;;;;;;25.95;9.98;;;;;;;11.87;100.00;101979.28;5053559;28;20044;-67
2022/10/29 02:57:47;;;;;;;25.05;9.45;;;;;;;11.90;100.00;101976.47;5057504;28;20054;-68
2022/10/29 03:00:13;;;;;;;41.95;10.55;;;;;;;11.66;100.00;101978.53;5038970;28;20044;-70
2022/10/29 03:02:39;;;;;;;153.45;14.25;;;;;;;11.61;100.00;101969.88;5059258;28;20047;-68
2022/10/29 03:05:05;;;;;;;171.93;24.58;;;;;;;11.65;100.00;101958.09;5053284;28;20045;-68
2022/10/29 03:07:35;;;;;;;27.90;9.55;;;;;;;11.61;100.00;101959.19;5051317;28;20818;-68
2022/10/29 03:10:04;;;;;;;22.13;8.48;;;;;;;11.57;100.00;101953.13;5058757;28;20085;-68
2022/10/29 03:12:30;;;;;;;28.23;9.18;;;;;;;11.65;100.00;101953.63;5056513;28;20044;-69
2022/10/29 03:14:55;;;;;;;21.02;9.07;;;;;;;11.74;100.00;101954.09;5059185;28;20051;-68
2022/10/29 03:17:21;;;;;;;23.45;8.93;;;;;;;11.74;100.00;101952.28;5055059;28;20094;-69
2022/10/29 03:19:46;;;;;;;22.55;9.95;;;;;;;11.77;100.00;101949.47;5059805;28;20564;-69
2022/10/29 03:22:12;;;;;;;20.60;9.10;;;;;;;11.86;100.00;101946.38;5059220;28;20064;-69
2022/10/29 03:24:37;;;;;;;23.77;8.57;;;;;;;11.79;100.00;101938.69;5056372;28;20043;-69
2022/10/29 03:27:02;;;;;;;16.73;8.02;;;;;;;11.67;100.00;101934.84;5055413;28;20033;-69
2022/10/29 03:29:28;;;;;;;9.43;5.00;;;;;;;11.70;100.00;101933.81;5042522;28;20045;-68
2022/10/29 03:31:53;;;;;;;21.10;8.85;;;;;;;11.67;100.00;101934.84;5056814;28;20033;-69
2022/10/29 03:34:19;;;;;;;21.00;7.78;;;;;;;11.69;100.00;101940.97;5059075;28;20037;-68
2022/10/29 03:36:44;;;;;;;16.85;6.85;;;;;;;11.71;100.00;101943.56;5054623;28;20029;-68
2022/10/29 03:39:10;;;;;;;14.98;7.18;;;;;;;11.73;100.00;101944.34;5054903;28;20033;-68
2022/10/29 03:41:35;;;;;;;14.23;6.68;;;;;;;11.68;100.00;101950.78;5082699;28;20114;-68
2022/10/29 03:44:01;;;;;;;13.48;6.63;;;;;;;11.79;100.00;101946.69;5061693;28;20055;-68
2022/10/29 03:46:26;;;;;;;14.38;6.35;;;;;;;11.72;100.00;101946.16;5054500;28;20037;-68
2022/10/29 03:48:51;;;;;;;22.58;8.10;;;;;;;11.72;100.00;101942.63;5058550;28;20805;-68
2022/10/29 03:51:17;;;;;;;29.05;9.27;;;;;;;11.68;100.00;101945.44;5056917;28;20591;-68
2022/10/29 03:53:42;;;;;;;125.97;11.73;;;;;;;11.59;100.00;101935.22;5061424;28;20409;-69
2022/10/29 03:56:09;;;;;;;23.88;8.65;;;;;;;11.65;100.00;101937.59;5064831;28;20028;-69
2022/10/29 03:58:34;;;;;;;16.08;8.48;;;;;;;11.59;100.00;101937.88;5064207;28;20020;-67
2022/10/29 04:01:05;;;;;;;38.20;8.23;;;;;;;11.61;100.00;101941.34;5060796;28;20047;-68
2022/10/29 04:03:32;;;;;;;29.40;7.75;;;;;;;11.57;100.00;101942.44;5065545;28;20051;-68
2022/10/29 04:05:59;;;;;;;61.28;14.05;;;;;;;11.55;100.00;101947.00;5061769;28;20046;-68
2022/10/29 04:08:25;;;;;;;74.75;12.95;;;;;;;11.55;100.00;101940.81;5067239;28;20036;-68
2022/10/29 04:10:50;;;;;;;19.05;7.13;;;;;;;11.46;100.00;101954.63;5065056;28;20470;-69
2022/10/29 04:13:17;;;;;;;24.08;9.50;;;;;;;11.47;100.00;101959.00;5071959;28;20186;-68
2022/10/29 04:15:42;;;;;;;19.88;6.18;;;;;;;11.34;100.00;101956.06;5063451;28;20036;-69
2022/10/29 04:18:08;;;;;;;9.38;5.15;;;;;;;11.25;100.00;101957.38;5058415;28;20090;-68
2022/10/29 04:20:34;;;;;;;15.88;7.30;;;;;;;11.23;100.00;101953.06;5063457;28;20044;-68
2022/10/29 04:23:00;;;;;;;36.45;7.38;;;;;;;11.25;100.00;101956.53;5060801;28;20028;-68
2022/10/29 04:25:25;;;;;;;20.25;7.30;;;;;;;11.29;100.00;101958.09;5056056;28;20037;-67
2022/10/29 04:27:53;;;;;;;38.58;7.05;;;;;;;11.30;100.00;101958.03;5055815;28;20028;-68
2022/10/29 04:30:19;;;;;;;22.55;6.85;;;;;;;11.35;100.00;101947.13;5055839;28;20775;-68
2022/10/29 04:32:44;;;;;;;20.42;7.03;;;;;;;11.37;100.00;101950.56;5063038;28;20036;-69
2022/10/29 04:35:09;;;;;;;13.05;6.43;;;;;;;11.43;100.00;101950.28;5062154;28;20043;-68
2022/10/29 04:37:35;;;;;;;26.08;8.38;;;;;;;11.51;100.00;101937.41;5054449;28;20424;-69
2022/10/29 04:40:00;;;;;;;27.48;7.55;;;;;;;11.44;100.00;101927.09;5062229;28;20040;-67
2022/10/29 04:42:26;;;;;;;35.58;6.45;;;;;;;11.48;100.00;101915.31;5059183;28;20779;-66
2022/10/29 04:44:51;;;;;;;19.77;7.22;;;;;;;11.57;100.00;101923.75;5083096;28;20411;-68
2022/10/29 04:47:17;;;;;;;18.42;8.23;;;;;;;11.71;100.00;101922.19;5061133;28;20048;-68
2022/10/29 04:49:42;;;;;;;20.13;10.05;;;;;;;11.63;100.00;101915.41;5060812;28;20690;-68
2022/10/29 04:52:08;;;;;;;77.00;10.27;;;;;;;11.60;100.00;101912.06;5064259;28;20040;-68
2022/10/29 04:54:33;;;;;;;79.88;13.95;;;;;;;11.59;100.00;101903.16;5062808;28;20045;-68
2022/10/29 04:56:58;;;;;;;39.55;11.35;;;;;;;11.51;100.00;101908.03;5051365;28;20044;-68
2022/10/29 04:59:24;;;;;;;43.13;10.55;;;;;;;11.53;100.00;101900.78;5055336;28;20036;-69
2022/10/29 05:01:49;;;;;;;40.30;10.32;;;;;;;11.55;100.00;101896.25;5061638;28;20032;-68
2022/10/29 05:04:15;;;;;;;27.90;11.00;;;;;;;11.62;100.00;101895.00;5061446;28;20036;-68
2022/10/29 05:06:40;;;;;;;46.78;14.15;;;;;;;11.63;100.00;101901.19;5053814;28;20103;-69
2022/10/29 05:09:06;;;;;;;44.25;14.00;;;;;;;11.67;100.00;101894.75;5057021;28;20785;-68
2022/10/29 05:11:32;;;;;;;32.92;12.82;;;;;;;11.64;100.00;101894.91;5058085;28;20051;-69
2022/10/29 05:13:58;;;;;;;22.35;12.40;;;;;;;11.73;100.00;101898.91;5056587;28;20037;-69
2022/10/29 05:16:23;;;;;;;25.00;10.98;;;;;;;11.70;100.00;101893.72;5058082;28;20039;-69
2022/10/29 05:18:48;;;;;;;25.73;10.93;;;;;;;11.68;100.00;101875.09;5058858;28;20086;-68
2022/10/29 05:21:14;;;;;;;19.25;10.70;;;;;;;11.73;100.00;101881.06;5060404;28;20037;-69
2022/10/29 05:23:39;;;;;;;27.30;12.02;;;;;;;11.56;100.00;101884.63;5059193;28;20307;-68
2022/10/29 05:26:05;;;;;;;17.85;10.95;;;;;;;11.44;100.00;101879.03;5058033;28;20786;-68
2022/10/29 05:28:30;;;;;;;13.93;9.25;;;;;;;11.23;100.00;101881.81;5057462;28;20500;-68
2022/10/29 05:30:59;;;;;;;126.57;11.55;;;;;;;10.99;100.00;101891.03;5055052;28;20037;-68
2022/10/29 05:33:25;;;;;;;11.00;6.75;;;;;;;11.24;100.00;101896.03;5056235;28;20399;-69
2022/10/29 05:35:51;;;;;;;11.23;7.88;;;;;;;11.32;100.00;101894.72;5058889;28;20067;-69
2022/10/29 05:38:16;;;;;;;16.60;10.07;;;;;;;11.40;100.00;101902.38;5051149;28;20033;-67
2022/10/29 05:40:43;;;;;;;17.80;9.73;;;;;;;11.45;100.00;101907.47;5052589;28;20474;-68
2022/10/29 05:43:13;;;;;;;21.77;10.23;;;;;;;11.47;100.00;101900.25;5053534;28;20615;-69
2022/10/29 05:45:40;;;;;;;15.50;8.38;;;;;;;11.48;100.00;101894.81;5054131;28;20037;-68
2022/10/29 05:48:06;;;;;;;14.73;9.40;;;;;;;11.43;100.00;101878.16;5058659;28;20125;-68
2022/10/29 05:50:32;;;;;;;21.88;10.43;;;;;;;11.47;100.00;101879.75;5051030;28;20155;-68
2022/10/29 05:53:00;;;;;;;24.52;9.23;;;;;;;11.28;100.00;101878.94;5040104;28;20405;-68
2022/10/29 05:55:26;;;;;;;17.50;8.85;;;;;;;11.36;100.00;101874.09;5053563;28;20387;-67
2022/10/29 05:57:56;;;;;;;16.80;7.65;;;;;;;11.29;100.00;101878.84;5052615;28;20452;-68
2022/10/29 06:00:23;;;;;;;17.25;7.65;;;;;;;11.25;100.00;101877.28;5058496;28;20487;-68
2022/10/29 06:02:48;;;;;;;16.23;8.35;;;;;;;11.00;100.00;101876.75;5059266;28;20682;-68
2022/10/29 06:05:14;;;;;;;19.20;7.90;;;;;;;10.89;100.00;101880.81;5056380;28;20040;-69
2022/10/29 06:07:40;;;;;;;20.98;7.80;;;;;;;11.11;100.00;101874.44;5055513;28;20105;-68
2022/10/29 06:10:06;;;;;;;17.27;7.70;;;;;;;11.20;100.00;101875.78;5054616;28;20047;-68
2022/10/29 06:12:31;;;;;;;14.82;7.63;;;;;;;11.15;100.00;101871.53;5059900;28;20415;-67
2022/10/29 06:14:57;;;;;;;10.85;6.60;;;;;;;11.13;100.00;101869.88;5055866;28;20033;-67
2022/10/29 06:17:23;;;;;;;11.95;6.97;;;;;;;11.17;100.00;101871.44;5055622;28;20032;-68
2022/10/29 06:19:48;;;;;;;25.35;8.80;;;;;;;11.21;100.00;101867.69;5056815;28;20084;-67
2022/10/29 06:22:13;;;;;;;9.80;6.60;;;;;;;11.22;100.00;101861.41;5058390;28;20044;-66
2022/10/29 06:24:39;;;;;;;28.10;6.55;;;;;;;11.20;100.00;101865.97;5055274;28;20040;-67
2022/10/29 06:27:04;;;;;;;58.83;9.75;;;;;;;11.32;100.00;101873.34;5057096;28;20051;-68
2022/10/29 06:29:30;;;;;;;24.10;9.23;;;;;;;11.34;100.00;101874.13;5059087;28;20036;-67
2022/10/29 06:31:55;;;;;;;18.55;9.20;;;;;;;11.38;100.00;101874.84;5057808;28;20043;-68
2022/10/29 06:34:21;;;;;;;16.58;9.10;;;;;;;11.41;100.00;101869.38;5051428;28;20550;-67
2022/10/29 06:36:46;;;;;;;16.95;9.10;;;;;;;11.48;100.00;101878.78;5054895;28;20028;-68
2022/10/29 06:39:12;;;;;;;15.77;8.45;;;;;;;11.47;100.00;101868.19;5051564;28;20039;-67
2022/10/29 06:41:37;;;;;;;17.95;8.93;;;;;;;11.54;100.00;101862.44;5056193;28;20033;-68
2022/10/29 06:44:04;;;;;;;15.48;8.98;;;;;;;11.61;100.00;101852.34;5050889;28;20028;-69
2022/10/29 06:46:30;;;;;;;17.33;8.40;;;;;;;11.65;100.00;101838.75;5056668;28;20044;-68
2022/10/29 06:48:55;;;;;;;16.17;8.85;;;;;;;11.76;100.00;101851.53;5056586;28;20511;-68
2022/10/29 06:51:22;;;;;;;16.58;9.60;;;;;;;11.92;100.00;101857.84;5053937;28;20052;-68
2022/10/29 06:53:47;;;;;;;21.45;10.82;;;;;;;12.09;100.00;101864.09;5056305;28;20033;-68
2022/10/29 06:56:13;;;;;;;18.50;9.45;;;;;;;12.22;100.00;101866.97;5058736;28;20032;-69
2022/10/29 06:58:39;;;;;;;17.17;9.45;;;;;;;12.13;100.00;101874.53;5037265;28;20405;-65
2022/10/29 07:01:04;;;;;;;16.58;8.85;;;;;;;12.16;100.00;101874.38;5072272;28;20044;-67
2022/10/29 07:03:30;;;;;;;18.55;8.55;;;;;;;12.20;100.00;101877.78;5058218;28;20048;-66
2022/10/29 07:05:57;;;;;;;21.17;9.18;;;;;;;12.22;100.00;101869.66;5054611;28;20040;-67
2022/10/29 07:08:23;;;;;;;17.05;10.00;;;;;;;12.28;100.00;101869.31;5056982;28;20051;-68
2022/10/29 07:10:53;;;;;;;22.00;9.00;;;;;;;12.35;100.00;101876.06;5056236;28;20032;-68
2022/10/29 07:13:18;;;;;;;20.98;10.60;;;;;;;12.39;100.00;101872.25;5057147;28;20037;-68
2022/10/29 07:15:44;;;;;;;30.05;10.35;;;;;;;12.49;100.00;101886.00;5057528;28;20581;-68
2022/10/29 07:18:10;;;;;;;22.65;10.20;;;;;;;12.65;100.00;101886.88;5058193;28;20063;-68
2022/10/29 07:20:38;;;;;;;18.48;10.10;;;;;;;12.74;100.00;101880.16;5061140;28;20131;-68
2022/10/29 07:23:04;;;;;;;23.10;10.20;;;;;;;12.92;100.00;101887.19;5053789;28;20037;-69
2022/10/29 07:25:30;;;;;;;16.40;10.48;;;;;;;13.06;100.00;101875.69;5057691;28;20044;-69
2022/10/29 07:28:06;;;;;;;25.65;11.80;;;;;;;13.20;100.00;101883.78;5056258;28;20039;-69
2022/10/29 07:30:32;;;;;;;23.98;12.68;;;;;;;13.28;100.00;101864.63;5052393;28;20048;-69
2022/10/29 07:32:57;;;;;;;28.45;13.50;;;;;;;13.32;100.00;101867.03;5051652;28;20040;-69
2022/10/29 07:35:23;;;;;;;23.30;12.27;;;;;;;13.42;100.00;101870.03;5051446;28;20040;-68
2022/10/29 07:37:48;;;;;;;23.45;13.13;;;;;;;13.65;100.00;101866.84;5051815;28;20121;-69
2022/10/29 07:40:14;;;;;;;23.25;12.60;;;;;;;13.83;100.00;101869.38;5057332;28;20062;-68
2022/10/29 07:42:39;;;;;;;23.65;11.50;;;;;;;14.02;100.00;101861.09;5058777;28;20509;-68
2022/10/29 07:45:05;;;;;;;31.95;13.27;;;;;;;13.99;100.00;101870.16;5054965;28;20045;-68
2022/10/29 07:47:31;;;;;;;25.77;13.10;;;;;;;14.11;100.00;101868.56;5049814;28;20036;-68
2022/10/29 07:49:57;;;;;;;24.83;12.98;;;;;;;14.17;100.00;101865.50;5056878;28;20397;-69
2022/10/29 07:52:22;;;;;;;27.08;13.00;;;;;;;14.46;100.00;101863.69;5052180;28;20048;-69
2022/10/29 07:54:47;;;;;;;31.73;13.23;;;;;;;14.62;100.00;101866.28;5049944;28;20040;-68
2022/10/29 07:57:14;;;;;;;31.23;13.95;;;;;;;14.60;100.00;101857.44;5057657;28;20404;-68
2022/10/29 07:59:40;;;;;;;30.80;15.48;;;;;;;14.72;100.00;101849.47;5054826;28;20041;-69
2022/10/29 08:02:09;;;;;;;34.92;15.75;;;;;;;14.85;100.00;101848.66;5054316;28;20033;-69
2022/10/29 08:04:34;;;;;;;36.70;17.40;;;;;;;14.82;100.00;101851.56;5057718;28;20706;-69
2022/10/29 08:07:00;;;;;;;34.78;17.20;;;;;;;14.85;100.00;101857.59;5056305;28;20067;-67
2022/10/29 08:09:25;;;;;;;37.83;17.27;;;;;;;14.96;100.00;101851.50;5057049;28;20045;-69
2022/10/29 08:11:51;;;;;;;44.45;17.02;;;;;;;15.14;100.00;101860.19;5057218;28;20173;-69
2022/10/29 08:14:16;;;;;;;50.25;19.85;;;;;;;15.21;100.00;101856.13;5056117;28;20035;-69
2022/10/29 08:16:41;;;;;;;45.92;20.17;;;;;;;15.42;100.00;101848.47;5057358;28;20776;-69
2022/10/29 08:19:08;;;;;;;41.67;18.38;;;;;;;15.58;100.00;101848.28;5054799;28;20032;-68
2022/10/29 08:21:33;;;;;;;31.00;17.30;;;;;;;15.75;100.00;101848.00;5055323;28;20036;-69
2022/10/29 08:23:59;;;;;;;31.27;16.35;;;;;;;15.91;100.00;101851.34;5056506;28;20093;-68
2022/10/29 08:26:24;;;;;;;32.95;16.65;;;;;;;16.02;100.00;101856.00;5052804;28;20715;-68
2022/10/29 08:28:50;;;;;;;37.28;17.77;;;;;;;16.24;100.00;101856.19;5052804;28;20508;-69
2022/10/29 08:31:15;;;;;;;35.25;17.38;;;;;;;16.35;100.00;101860.81;5055036;28;20495;-69
2022/10/29 08:33:41;;;;;;;31.30;16.67;;;;;;;16.53;100.00;101859.50;5055541;28;20044;-68
2022/10/29 08:36:06;;;;;;;37.00;17.88;;;;;;;16.78;100.00;101861.31;5053761;28;20041;-69
2022/10/29 08:38:32;;;;;;;36.30;16.23;;;;;;;16.92;100.00;101864.81;5053437;28;20040;-69
2022/10/29 08:41:06;;;;;;;30.60;15.30;;;;;;;16.94;100.00;101844.00;5071212;28;20052;-74
2022/10/29 08:43:46;;;;;;;26.85;14.93;;;;;;;16.85;100.00;101842.00;5053926;28;20040;-74
2022/10/29 08:46:38;;;;;;;33.80;15.70;;;;;;;17.05;100.00;101827.91;5059210;28;20401;-74
2022/10/29 08:49:10;;;;;;;25.60;14.50;;;;;;;16.86;100.00;101814.06;5050599;28;20594;-69
2022/10/29 08:51:39;;;;;;;32.90;16.30;;;;;;;16.95;100.00;101816.09;5060236;28;20588;-68
2022/10/29 08:54:12;;;;;;;36.15;15.25;;;;;;;16.95;100.00;101808.00;5074184;28;20736;-68
2022/10/29 08:56:43;;;;;;;35.10;15.13;;;;;;;17.00;100.00;101806.69;5059390;28;20488;-68
2022/10/29 08:59:20;;;;;;;49.58;15.10;;;;;;;17.18;100.00;101807.13;5059404;28;20025;-69
2022/10/29 09:01:46;;;;;;;29.30;13.63;;;;;;;16.92;100.00;101819.00;5054470;28;20737;-69
2022/10/29 09:04:26;;;;;;;26.33;13.60;;;;;;;16.91;100.00;101823.53;5057340;28;20040;-67
2022/10/29 09:07:12;;;;;;;32.38;14.27;;;;;;;17.01;100.00;101823.69;5067768;28;20071;-68
2022/10/29 09:09:43;;;;;;;25.15;12.70;;;;;;;17.12;100.00;101820.19;5053710;28;20060;-67
2022/10/29 09:12:47;;;;;;;26.35;13.82;;;;;;;17.10;100.00;101812.25;5055827;28;20048;-68
2022/10/29 09:15:37;;;;;;;24.58;13.55;;;;;;;17.21;100.00;101814.97;5030101;28;20072;-69
2022/10/29 09:18:30;;;;;;;28.52;13.30;;;;;;;17.18;100.00;101820.63;5053093;28;20500;-68
2022/10/29 09:21:24;;;;;;;32.83;13.07;;;;;;;17.37;100.00;101838.06;5071411;28;20041;-69
2022/10/29 09:24:13;;;;;;;30.83;12.93;;;;;;;17.70;100.00;101829.25;5082421;28;20025;-68
2022/10/29 09:27:07;;;;;;;31.05;13.35;;;;;;;18.10;100.00;101833.25;5050641;28;20124;-68
2022/10/29 09:29:45;;;;;;;31.20;12.68;;;;;;;18.12;100.00;101838.53;5044985;28;20829;-69
2022/10/29 09:32:32;;;;;;;27.17;12.73;;;;;;;17.91;100.00;101835.69;5057450;28;20040;-68
2022/10/29 09:35:12;;;;;;;29.65;11.63;;;;;;;17.90;100.00;101825.00;5057793;28;20135;-69
2022/10/29 09:37:52;;;;;;;32.15;11.60;;;;;;;18.13;100.00;101829.47;5050027;28;20040;-68
2022/10/29 09:40:37;;;;;;;27.85;12.43;;;;;;;18.16;100.00;101823.81;5052088;28;20072;-69
2022/10/29 09:43:35;;;;;;;27.67;11.93;;;;;;;17.86;100.00;101821.69;5054447;28;20139;-69
2022/10/29 09:46:12;;;;;;;33.63;12.10;;;;;;;18.05;100.00;101818.41;5053174;28;20587;-68
2022/10/29 09:48:37;;;;;;;22.77;11.50;;;;;;;18.08;100.00;101824.44;5075069;28;20973;-69
2022/10/29 09:51:51;;;;;;;28.23;10.93;;;;;;;17.92;100.00;101817.66;5056818;28;20036;-68
2022/10/29 09:54:17;;;;;;;27.70;11.00;;;;;;;17.95;100.00;101806.63;5063920;28;20145;-68
2022/10/29 09:56:45;;;;;;;27.95;10.48;;;;;;;17.85;100.00;101801.09;5054467;28;20538;-68
2022/10/29 09:59:23;;;;;;;28.80;10.95;;;;;;;17.96;100.00;101797.53;5051881;28;20448;-67
2022/10/29 10:01:48;;;;;;;33.78;11.63;;;;;;;18.04;100.00;101797.81;5055176;28;20083;-69
2022/10/29 10:04:46;;;;;;;31.90;10.50;;;;;;;17.95;100.00;101798.53;5057162;28;20040;-69
2022/10/29 10:07:18;;;;;;;26.50;10.77;;;;;;;17.95;100.00;101802.06;5045331;28;20934;-69
2022/10/29 10:09:58;;;;;;;21.90;9.98;;;;;;;17.93;100.00;101793.25;5055056;28;20068;-69
2022/10/29 10:12:28;;;;;;;25.77;10.60;;;;;;;17.84;100.00;101792.13;5074317;28;20040;-69
2022/10/29 10:15:15;;;;;;;20.58;10.60;;;;;;;17.82;100.00;101782.44;5052532;28;20441;-70
2022/10/29 10:17:57;;;;;;;28.10;9.85;;;;;;;17.82;100.00;101777.91;5052744;28;20040;-69
2022/10/29 10:20:29;;;;;;;22.95;10.95;;;;;;;17.82;100.00;101766.25;5052644;28;20478;-67
2022/10/29 10:22:55;;;;;;;;;;;;;;;17.84;100.00;101756.19;5057146;28;20067;-68
2022/10/29 10:25:37;;;;;;;24.75;9.90;;;;;;;17.83;100.00;101749.94;5051023;28;20003;-69
2022/10/29 10:28:23;;;;;;;21.50;9.32;;;;;;;17.98;100.00;101766.75;5052765;28;20811;-69
2022/10/29 10:31:13;;;;;;;21.17;9.85;;;;;;;18.21;100.00;101780.25;5055825;28;20463;-68
2022/10/29 10:33:51;;;;;;;23.48;10.32;;;;;;;18.45;100.00;101774.69;5045525;28;20024;-70
2022/10/29 10:36:19;;;;;;;27.70;10.68;;;;;;;18.45;100.00;101770.16;5053206;28;20056;-68
2022/10/29 10:38:50;;;;;;;22.10;9.88;;;;;;;18.38;100.00;101769.81;5053857;28;20516;-67
2022/10/29 10:41:27;;;;;;;20.80;9.18;;;;;;;18.42;100.00;101769.53;5051923;28;20087;-68
2022/10/29 10:43:56;;;;;;;26.40;9.30;;;;;;;18.45;100.00;101775.56;5047769;28;20548;-68
2022/10/29 10:46:26;;;;;;;23.55;10.43;;;;;;;18.51;100.00;101769.63;5051862;28;20040;-67
2022/10/29 10:49:12;;;;;;;16.80;8.00;;;;;;;18.60;100.00;101771.59;5055997;28;20711;-69
2022/10/29 10:51:42;;;;;;;17.98;8.68;;;;;;;18.71;100.00;101776.13;5051105;28;20055;-67
2022/10/29 10:54:31;;;;;;;18.30;8.38;;;;;;;18.78;100.00;101773.81;5056521;28;20043;-68
2022/10/29 10:56:58;;;;;;;25.42;8.20;;;;;;;18.86;100.00;101780.25;5052792;28;20127;-68
2022/10/29 10:59:32;;;;;;;25.13;9.43;;;;;;;18.68;100.00;101779.09;5054796;28;20117;-68
2022/10/29 11:01:59;;;;;;;15.18;6.70;;;;;;;18.80;100.00;101767.25;5047608;28;20055;-67
2022/10/29 11:04:36;;;;;;;28.75;9.05;;;;;;;18.87;100.00;101767.59;5062179;28;20037;-68
2022/10/29 11:07:10;;;;;;;19.90;7.82;;;;;;;18.84;100.00;101760.63;5057352;28;20153;-67
2022/10/29 11:09:39;;;;;;;21.10;8.23;;;;;;;19.22;100.00;101759.22;5054708;28;20153;-67
2022/10/29 11:12:29;;;;;;;22.67;8.25;;;;;;;19.39;100.00;101749.69;5057147;28;20051;-67
2022/10/29 11:15:23;;;;;;;19.30;7.40;;;;;;;19.79;99.15;101738.97;5056034;28;20029;-69
2022/10/29 11:17:53;;;;;;;20.45;8.20;;;;;;;19.82;97.72;101743.25;5057976;28;20032;-68
2022/10/29 11:20:35;;;;;;;19.85;8.30;;;;;;;19.98;98.23;101748.16;5054917;28;20046;-68